sensor_id;sensor_type;location;lat;lon;timestamp;pressure;altitude;pressure_sealevel;temperature;humidity
37068;BME280;22982;42.848;25.468;2024-03-02T00:00:23;95756.09;;;7.56;100.00
37068;BME280;22982;42.848;25.468;2024-03-02T00:05:27;95734.91;;;7.46;100.00
37068;BME280;22982;42.848;25.468;2024-03-02T00:10:39;95741.97;;;7.44;100.00
37068;BME280;22982;42.848;25.468;2024-03-02T00:15:47;95751.63;;;7.42;100.00
37068;BME280;22982;42.848;25.468;2024-03-02T00:20:53;95735.81;;;7.45;100.00
37068;BME280;22982;42.848;25.468;2024-03-02T00:26:00;95733.72;;;7.36;100.00
37068;BME280;22982;42.848;25.468;2024-03-02T00:31:07;95725.91;;;7.36;100.00
37068;BME280;22982;42.848;25.468;2024-03-02T00:36:29;95735.13;;;7.58;100.00
37068;BME280;22982;42.848;25.468;2024-03-02T00:41:32;95727.66;;;7.52;100.00
37068;BME280;22982;42.848;25.468;2024-03-02T00:46:38;95730.44;;;7.48;100.00
37068;BME280;22982;42.848;25.468;2024-03-02T00:51:44;95723.34;;;7.51;100.00
37068;BME280;22982;42.848;25.468;2024-03-02T00:56:48;95724.28;;;7.50;100.00
37068;BME280;22982;42.848;25.468;2024-03-02T01:01:52;95705.28;;;7.32;100.00
37068;BME280;22982;42.848;25.468;2024-03-02T01:06:54;95694.66;;;7.51;100.00
37068;BME280;22982;42.848;25.468;2024-03-02T01:11:58;95712.75;;;7.54;100.00
37068;BME280;22982;42.848;25.468;2024-03-02T01:17:00;95710.22;;;7.52;100.00
37068;BME280;22982;42.848;25.468;2024-03-02T01:22:06;95702.41;;;7.52;100.00
37068;BME280;22982;42.848;25.468;2024-03-02T01:27:09;95691.88;;;7.54;100.00
37068;BME280;22982;42.848;25.468;2024-03-02T01:32:12;95706.00;;;7.50;100.00
37068;BME280;22982;42.848;25.468;2024-03-02T01:37:14;95698.91;;;7.37;100.00
37068;BME280;22982;42.848;25.468;2024-03-02T01:42:17;95703.19;;;7.38;100.00
37068;BME280;22982;42.848;25.468;2024-03-02T01:47:20;95691.34;;;7.33;100.00
37068;BME280;22982;42.848;25.468;2024-03-02T01:52:24;95685.28;;;7.32;100.00
37068;BME280;22982;42.848;25.468;2024-03-02T01:57:26;95692.00;;;7.36;100.00
37068;BME280;22982;42.848;25.468;2024-03-02T02:02:29;95693.50;;;7.40;100.00
37068;BME280;22982;42.848;25.468;2024-03-02T02:07:32;95681.59;;;7.04;100.00
37068;BME280;22982;42.848;25.468;2024-03-02T02:12:38;95704.47;;;7.15;100.00
37068;BME280;22982;42.848;25.468;2024-03-02T02:17:41;95677.22;;;7.21;100.00
37068;BME280;22982;42.848;25.468;2024-03-02T02:23:04;95691.13;;;6.89;100.00
37068;BME280;22982;42.848;25.468;2024-03-02T02:28:08;95690.88;;;6.94;100.00
37068;BME280;22982;42.848;25.468;2024-03-02T02:33:10;95673.63;;;7.07;100.00
37068;BME280;22982;42.848;25.468;2024-03-02T02:38:13;95684.13;;;6.90;100.00
37068;BME280;22982;42.848;25.468;2024-03-02T02:43:16;95696.16;;;7.08;100.00
37068;BME280;22982;42.848;25.468;2024-03-02T02:48:19;95695.56;;;7.19;100.00
37068;BME280;22982;42.848;25.468;2024-03-02T02:53:21;95687.63;;;7.21;100.00
37068;BME280;22982;42.848;25.468;2024-03-02T02:58:24;95679.94;;;7.19;100.00
37068;BME280;22982;42.848;25.468;2024-03-02T03:03:27;95679.06;;;7.19;100.00
37068;BME280;22982;42.848;25.468;2024-03-02T03:08:29;95684.09;;;7.38;100.00
37068;BME280;22982;42.848;25.468;2024-03-02T03:13:32;95683.88;;;7.11;100.00
37068;BME280;22982;42.848;25.468;2024-03-02T03:18:34;95687.75;;;7.03;100.00
37068;BME280;22982;42.848;25.468;2024-03-02T03:23:42;95690.75;;;7.12;100.00
37068;BME280;22982;42.848;25.468;2024-03-02T03:28:44;95697.31;;;7.19;100.00
37068;BME280;22982;42.848;25.468;2024-03-02T03:33:48;95686.13;;;7.17;100.00
37068;BME280;22982;42.848;25.468;2024-03-02T03:38:50;95685.97;;;7.20;100.00
37068;BME280;22982;42.848;25.468;2024-03-02T03:43:52;95690.00;;;7.09;100.00
37068;BME280;22982;42.848;25.468;2024-03-02T03:48:58;95693.28;;;7.29;100.00
37068;BME280;22982;42.848;25.468;2024-03-02T03:54:00;95689.50;;;7.19;100.00
37068;BME280;22982;42.848;25.468;2024-03-02T03:59:03;95703.47;;;7.34;100.00
37068;BME280;22982;42.848;25.468;2024-03-02T04:04:13;95704.66;;;7.12;100.00
37068;BME280;22982;42.848;25.468;2024-03-02T04:09:15;95703.13;;;7.08;100.00
37068;BME280;22982;42.848;25.468;2024-03-02T04:14:21;95696.56;;;7.01;100.00
37068;BME280;22982;42.848;25.468;2024-03-02T04:19:23;95695.91;;;7.13;100.00
37068;BME280;22982;42.848;25.468;2024-03-02T04:24:26;95706.81;;;7.36;100.00
37068;BME280;22982;42.848;25.468;2024-03-02T04:29:28;95695.72;;;7.32;100.00
37068;BME280;22982;42.848;25.468;2024-03-02T04:34:31;95695.38;;;7.22;100.00
37068;BME280;22982;42.848;25.468;2024-03-02T04:39:35;95701.19;;;7.12;100.00
37068;BME280;22982;42.848;25.468;2024-03-02T04:44:38;95707.06;;;7.31;100.00
37068;BME280;22982;42.848;25.468;2024-03-02T04:49:41;95697.91;;;7.24;100.00
37068;BME280;22982;42.848;25.468;2024-03-02T04:54:44;95704.50;;;7.45;100.00
37068;BME280;22982;42.848;25.468;2024-03-02T05:00:05;95692.25;;;7.32;100.00
37068;BME280;22982;42.848;25.468;2024-03-02T05:05:11;95713.97;;;7.32;100.00
37068;BME280;22982;42.848;25.468;2024-03-02T05:10:13;95700.19;;;7.14;100.00
37068;BME280;22982;42.848;25.468;2024-03-02T05:15:17;95701.47;;;7.23;100.00
37068;BME280;22982;42.848;25.468;2024-03-02T05:20:20;95702.44;;;7.36;100.00
37068;BME280;22982;42.848;25.468;2024-03-02T05:25:23;95715.28;;;7.55;100.00
37068;BME280;22982;42.848;25.468;2024-03-02T05:30:25;95712.16;;;7.48;100.00
37068;BME280;22982;42.848;25.468;2024-03-02T05:35:28;95713.94;;;7.78;100.00
37068;BME280;22982;42.848;25.468;2024-03-02T05:40:33;95711.28;;;7.94;100.00
37068;BME280;22982;42.848;25.468;2024-03-02T05:45:36;95706.44;;;8.02;100.00
37068;BME280;22982;42.848;25.468;2024-03-02T05:50:38;95710.72;;;8.03;100.00
37068;BME280;22982;42.848;25.468;2024-03-02T05:55:41;95718.13;;;8.25;100.00
37068;BME280;22982;42.848;25.468;2024-03-02T06:00:43;95715.16;;;8.32;100.00
37068;BME280;22982;42.848;25.468;2024-03-02T06:05:50;95717.03;;;8.30;100.00
37068;BME280;22982;42.848;25.468;2024-03-02T06:10:53;95711.44;;;8.50;100.00
37068;BME280;22982;42.848;25.468;2024-03-02T06:15:55;95699.34;;;8.49;100.00
37068;BME280;22982;42.848;25.468;2024-03-02T06:20:58;95699.41;;;8.76;100.00
37068;BME280;22982;42.848;25.468;2024-03-02T06:26:01;95705.25;;;8.94;100.00
37068;BME280;22982;42.848;25.468;2024-03-02T06:31:04;95705.75;;;9.14;100.00
37068;BME280;22982;42.848;25.468;2024-03-02T06:36:07;95712.78;;;9.41;100.00
37068;BME280;22982;42.848;25.468;2024-03-02T06:41:11;95704.72;;;9.44;100.00
37068;BME280;22982;42.848;25.468;2024-03-02T06:46:14;95699.69;;;9.13;100.00
37068;BME280;22982;42.848;25.468;2024-03-02T06:51:17;95711.81;;;9.29;100.00
37068;BME280;22982;42.848;25.468;2024-03-02T06:56:20;95683.72;;;9.45;100.00
37068;BME280;22982;42.848;25.468;2024-03-02T07:01:22;95702.91;;;9.71;100.00
37068;BME280;22982;42.848;25.468;2024-03-02T07:06:27;95698.94;;;9.66;100.00
37068;BME280;22982;42.848;25.468;2024-03-02T07:11:29;95705.31;;;9.62;100.00
37068;BME280;22982;42.848;25.468;2024-03-02T07:16:31;95697.25;;;9.65;100.00
37068;BME280;22982;42.848;25.468;2024-03-02T07:21:37;95698.59;;;9.98;100.00
37068;BME280;22982;42.848;25.468;2024-03-02T07:26:58;95686.56;;;10.46;100.00
37068;BME280;22982;42.848;25.468;2024-03-02T07:32:02;95678.75;;;10.83;100.00
37068;BME280;22982;42.848;25.468;2024-03-02T07:37:05;95699.72;;;10.83;100.00
37068;BME280;22982;42.848;25.468;2024-03-02T07:42:08;95682.97;;;11.10;98.86
37068;BME280;22982;42.848;25.468;2024-03-02T07:47:10;95685.88;;;11.18;97.26
37068;BME280;22982;42.848;25.468;2024-03-02T19:10:05;95954.56;;;8.17;100.00
37068;BME280;22982;42.848;25.468;2024-03-02T19:15:11;95940.09;;;8.11;100.00
37068;BME280;22982;42.848;25.468;2024-03-02T19:20:15;95976.03;;;7.90;100.00
37068;BME280;22982;42.848;25.468;2024-03-02T19:25:20;95983.50;;;7.80;100.00
37068;BME280;22982;42.848;25.468;2024-03-02T19:30:22;95976.88;;;7.91;100.00
37068;BME280;22982;42.848;25.468;2024-03-02T19:35:27;95991.78;;;8.04;100.00
37068;BME280;22982;42.848;25.468;2024-03-02T19:40:30;95971.50;;;8.10;100.00
37068;BME280;22982;42.848;25.468;2024-03-02T19:45:33;95972.09;;;7.99;100.00
37068;BME280;22982;42.848;25.468;2024-03-02T19:50:36;95989.59;;;7.81;100.00
37068;BME280;22982;42.848;25.468;2024-03-02T19:55:41;95979.66;;;7.72;100.00
37068;BME280;22982;42.848;25.468;2024-03-02T20:00:47;95981.50;;;7.85;100.00
37068;BME280;22982;42.848;25.468;2024-03-02T20:05:50;95985.06;;;7.84;100.00
37068;BME280;22982;42.848;25.468;2024-03-02T20:10:53;95985.06;;;8.00;100.00
37068;BME280;22982;42.848;25.468;2024-03-02T20:15:55;95987.56;;;8.02;100.00
37068;BME280;22982;42.848;25.468;2024-03-02T20:20:59;95990.97;;;8.04;100.00
37068;BME280;22982;42.848;25.468;2024-03-02T20:26:01;95985.22;;;8.13;100.00
37068;BME280;22982;42.848;25.468;2024-03-02T20:31:06;95979.94;;;7.99;100.00
37068;BME280;22982;42.848;25.468;2024-03-02T20:36:12;95984.03;;;8.19;100.00
37068;BME280;22982;42.848;25.468;2024-03-02T20:46:19;95979.34;;;8.10;100.00
37068;BME280;22982;42.848;25.468;2024-03-02T20:51:24;95980.25;;;8.24;100.00
37068;BME280;22982;42.848;25.468;2024-03-02T20:56:34;95983.88;;;8.06;100.00
37068;BME280;22982;42.848;25.468;2024-03-02T21:01:38;95974.13;;;8.10;100.00
37068;BME280;22982;42.848;25.468;2024-03-02T21:06:41;95962.25;;;8.04;100.00
37068;BME280;22982;42.848;25.468;2024-03-02T21:11:45;95956.06;;;8.05;100.00
37068;BME280;22982;42.848;25.468;2024-03-02T21:16:50;95969.81;;;8.09;100.00
37068;BME280;22982;42.848;25.468;2024-03-02T21:21:55;95972.41;;;8.09;100.00
37068;BME280;22982;42.848;25.468;2024-03-02T21:27:00;95956.59;;;7.96;100.00
37068;BME280;22982;42.848;25.468;2024-03-02T21:32:03;95950.34;;;8.14;100.00
37068;BME280;22982;42.848;25.468;2024-03-02T21:37:07;95947.72;;;8.14;100.00
37068;BME280;22982;42.848;25.468;2024-03-02T21:42:17;95954.88;;;8.27;100.00
37068;BME280;22982;42.848;25.468;2024-03-02T21:47:19;95964.06;;;8.34;100.00
37068;BME280;22982;42.848;25.468;2024-03-02T21:52:23;95962.94;;;8.38;100.00
37068;BME280;22982;42.848;25.468;2024-03-02T21:57:25;95948.13;;;8.38;100.00
37068;BME280;22982;42.848;25.468;2024-03-02T22:02:28;95958.94;;;8.48;100.00
37068;BME280;22982;42.848;25.468;2024-03-02T22:07:31;95962.78;;;8.57;100.00
37068;BME280;22982;42.848;25.468;2024-03-02T22:12:33;95958.94;;;8.48;100.00
37068;BME280;22982;42.848;25.468;2024-03-02T22:17:42;95953.94;;;8.43;100.00
37068;BME280;22982;42.848;25.468;2024-03-02T22:22:45;95970.91;;;8.20;100.00
37068;BME280;22982;42.848;25.468;2024-03-02T22:27:47;95974.88;;;8.28;100.00
37068;BME280;22982;42.848;25.468;2024-03-02T22:33:01;95963.06;;;8.20;100.00
37068;BME280;22982;42.848;25.468;2024-03-02T22:38:04;95970.56;;;8.27;100.00
37068;BME280;22982;42.848;25.468;2024-03-02T22:43:08;95965.94;;;8.16;100.00
37068;BME280;22982;42.848;25.468;2024-03-02T22:48:11;95969.88;;;8.23;100.00
37068;BME280;22982;42.848;25.468;2024-03-02T22:53:14;95982.69;;;8.28;100.00
37068;BME280;22982;42.848;25.468;2024-03-02T22:58:17;95965.56;;;8.22;100.00
37068;BME280;22982;42.848;25.468;2024-03-02T23:03:19;95973.41;;;8.38;100.00
37068;BME280;22982;42.848;25.468;2024-03-02T23:08:22;95974.88;;;8.28;100.00
37068;BME280;22982;42.848;25.468;2024-03-02T23:13:25;95982.50;;;8.31;100.00
37068;BME280;22982;42.848;25.468;2024-03-02T23:18:30;95974.28;;;8.22;100.00
37068;BME280;22982;42.848;25.468;2024-03-02T23:23:33;95970.41;;;7.98;100.00
37068;BME280;22982;42.848;25.468;2024-03-02T23:28:36;95973.25;;;8.09;100.00
37068;BME280;22982;42.848;25.468;2024-03-02T23:33:38;95973.16;;;7.95;100.00
37068;BME280;22982;42.848;25.468;2024-03-02T23:38:42;95980.16;;;7.78;100.00
37068;BME280;22982;42.848;25.468;2024-03-02T23:43:44;95980.69;;;8.01;100.00
37068;BME280;22982;42.848;25.468;2024-03-02T23:48:47;95980.09;;;7.96;100.00
37068;BME280;22982;42.848;25.468;2024-03-02T23:53:50;95964.56;;;7.93;100.00
37068;BME280;22982;42.848;25.468;2024-03-02T23:58:52;95966.88;;;7.50;100.00
